createdAt,value
2022-08-27T00:01:04.273Z,98031.72
2022-08-27T00:05:14.917Z,98025.19
2022-08-27T00:09:17.630Z,98018.34
2022-08-27T00:13:29.291Z,98022.13
2022-08-27T00:17:31.477Z,98022.72
2022-08-27T00:21:33.593Z,98030.38
2022-08-27T00:25:35.908Z,98028.44
2022-08-27T00:29:37.979Z,98020.69
2022-08-27T00:33:41.598Z,98018.63
2022-08-27T00:37:44.081Z,98024.03
2022-08-27T00:41:46.348Z,98028.22
2022-08-27T00:45:48.864Z,98033.47
2022-08-27T00:49:54.973Z,98026.72
2022-08-27T00:53:59.190Z,98022.13
2022-08-27T00:58:37.291Z,98029.22
2022-08-27T01:02:39.422Z,98034.72
2022-08-27T01:06:41.631Z,98032.34
2022-08-27T01:10:45.724Z,98035.34
2022-08-27T01:14:47.700Z,98036.69
2022-08-27T01:18:50.566Z,98023.84
2022-08-27T01:22:57.493Z,98029.72
2022-08-27T01:27:01.240Z,98030.22
2022-08-27T01:31:09.487Z,98036.19
2022-08-27T01:35:13.598Z,98035.31
2022-08-27T01:39:15.585Z,98038.34
2022-08-27T01:43:17.810Z,98038.41
2022-08-27T01:47:22.261Z,98032.84
2022-08-27T01:51:24.437Z,98042.06
2022-08-27T01:55:27.411Z,98038.69
2022-08-27T01:59:39.119Z,98037.91
2022-08-27T02:03:42.653Z,98042.50
2022-08-27T02:07:45.465Z,98045.88
2022-08-27T02:11:48.914Z,98037.78
2022-08-27T02:15:52.606Z,98030.03
2022-08-27T02:19:54.874Z,98028.09
2022-08-27T02:23:57.241Z,98031.94
2022-08-27T02:28:00.570Z,98033.03
2022-08-27T02:32:03.023Z,98021.78
2022-08-27T02:36:06.099Z,98018.63
2022-08-27T02:40:09.970Z,98025.03
2022-08-27T02:44:13.807Z,98027.38
2022-08-27T02:48:16.091Z,98027.78
2022-08-27T02:52:24.911Z,98028.91
2022-08-27T02:56:28.524Z,98025.41
2022-08-27T03:00:30.870Z,98024.16
2022-08-27T03:04:33.294Z,98028.31
2022-08-27T03:08:51.927Z,98026.72
2022-08-27T03:12:55.405Z,98028.06
2022-08-27T03:17:17.780Z,98030.75
2022-08-27T03:21:24.286Z,98037.72
2022-08-27T03:25:26.644Z,98039.63
2022-08-27T03:29:28.835Z,98039.31
2022-08-27T03:33:35.794Z,98034.25
2022-08-27T03:37:37.940Z,98036.06
2022-08-27T03:41:54.182Z,98031.47
2022-08-27T03:46:01.874Z,98033.09
2022-08-27T03:50:06.120Z,98025.47
2022-08-27T03:54:08.061Z,98028.50
2022-08-27T03:58:14.436Z,98030.19
2022-08-27T04:02:16.629Z,98014.81
2022-08-27T04:06:18.738Z,98020.53
2022-08-27T04:10:21.494Z,98022.78
2022-08-27T04:14:26.888Z,98030.88
2022-08-27T04:18:29.720Z,98026.31
2022-08-27T04:22:31.824Z,98031.22
2022-08-27T04:26:33.927Z,98028.06
2022-08-27T04:30:45.263Z,98033.03
2022-08-27T04:34:47.607Z,98027.03
2022-08-27T04:38:50.205Z,98043.03
2022-08-27T04:42:52.783Z,98040.13
2022-08-27T04:47:00.519Z,98041.88
2022-08-27T04:51:02.607Z,98053.91
2022-08-27T04:55:06.883Z,98059.91
2022-08-27T04:59:11.001Z,98061.66
2022-08-27T05:03:12.998Z,98078.28
2022-08-27T05:07:15.429Z,98066.44
2022-08-27T05:11:19.185Z,98069.88
2022-08-27T05:15:43.465Z,98071.53
2022-08-27T05:19:45.610Z,98074.16
2022-08-27T05:23:48.239Z,98075.69
2022-08-27T05:27:50.327Z,98087.25
2022-08-27T05:31:52.415Z,98082.13
2022-08-27T05:35:57.428Z,98085.31
2022-08-27T05:40:04.698Z,98088.13
2022-08-27T05:44:40.211Z,98086.91
2022-08-27T05:48:36.212Z,98086.81
2022-08-27T05:52:38.273Z,98088.19
2022-08-27T05:56:42.440Z,98086.00
2022-08-27T06:01:16.947Z,98091.75
2022-08-27T06:05:20.041Z,98091.44
2022-08-27T06:09:26.294Z,98097.22
2022-08-27T06:13:30.055Z,98089.78
2022-08-27T06:17:32.262Z,98096.56
2022-08-27T06:21:35.167Z,98104.09
2022-08-27T06:25:42.035Z,98105.34
2022-08-27T06:29:45.348Z,98099.31
2022-08-27T06:33:48.004Z,98094.78
2022-08-27T06:37:50.613Z,98095.38
2022-08-27T06:41:53.405Z,98097.69
2022-08-27T06:45:57.983Z,98093.44
2022-08-27T06:50:01.136Z,98098.09
2022-08-27T06:54:08.953Z,98094.47
2022-08-27T06:58:16.164Z,98089.50
2022-08-27T07:02:18.568Z,98101.50
2022-08-27T07:06:22.916Z,98090.00
2022-08-27T07:15:15.140Z,98091.31
2022-08-27T07:19:23.141Z,98091.03
2022-08-27T07:23:25.775Z,98091.88
2022-08-27T07:27:28.020Z,98089.19
2022-08-27T07:31:35.821Z,98086.91
2022-08-27T07:35:43.131Z,98087.19
2022-08-27T07:39:50.175Z,98085.31
2022-08-27T07:44:12.092Z,98089.13
2022-08-27T07:48:16.666Z,98091.81
2022-08-27T07:52:26.399Z,98092.38
2022-08-27T07:56:31.273Z,98097.75
2022-08-27T08:00:37.463Z,98099.56
2022-08-27T08:04:43.195Z,98093.63
2022-08-27T08:08:45.643Z,98100.53
2022-08-27T08:12:51.463Z,98106.84
2022-08-27T08:17:02.969Z,98109.91
2022-08-27T08:21:13.550Z,98112.69
2022-08-27T08:25:19.434Z,98107.09
2022-08-27T08:29:27.587Z,98102.75
2022-08-27T08:33:31.648Z,98101.38
2022-08-27T08:37:34.335Z,98100.00
2022-08-27T08:41:53.312Z,98100.91
2022-08-27T08:46:00.199Z,98099.34
2022-08-27T08:50:19.240Z,98099.59
2022-08-27T08:54:23.564Z,98088.03
2022-08-27T08:58:40.958Z,98097.09
2022-08-27T09:02:55.213Z,98090.94
2022-08-27T09:07:13.314Z,98094.06
2022-08-27T09:11:36.642Z,98092.09
2022-08-27T09:15:39.077Z,98098.22
2022-08-27T09:19:42.900Z,98091.34
2022-08-27T09:23:54.000Z,98081.22
2022-08-27T09:27:59.658Z,98079.31
2022-08-27T09:32:09.137Z,98088.03
2022-08-27T09:36:19.347Z,98087.72
2022-08-27T09:40:33.719Z,98084.63
2022-08-27T09:44:52.924Z,98082.78
2022-08-27T09:48:56.825Z,98081.28
2022-08-27T09:52:59.922Z,98083.63
2022-08-27T09:57:02.257Z,98069.97
2022-08-27T10:01:20.914Z,98077.47
2022-08-27T10:05:32.259Z,98072.06
2022-08-27T10:09:38.600Z,98068.91
2022-08-27T10:13:57.585Z,98062.66
2022-08-27T10:18:08.863Z,98057.19
2022-08-27T10:22:24.134Z,98056.03
2022-08-27T10:26:34.097Z,98054.84
2022-08-27T10:30:55.003Z,98049.03
2022-08-27T10:35:15.589Z,98040.41
2022-08-27T10:39:53.783Z,98041.16
2022-08-27T10:44:20.898Z,98042.69
2022-08-27T10:48:35.362Z,98038.69
2022-08-27T10:52:56.785Z,98041.03
2022-08-27T10:57:56.782Z,98034.78
2022-08-27T11:02:33.452Z,98023.78
2022-08-27T11:06:46.870Z,98018.63
2022-08-27T11:10:51.913Z,98009.44
2022-08-27T11:15:47.483Z,97994.47
2022-08-27T11:20:03.450Z,97981.91
2022-08-27T11:24:21.776Z,97979.56
2022-08-27T11:28:31.505Z,97973.66
2022-08-27T11:33:14.213Z,97970.91
2022-08-27T11:37:22.534Z,97966.63
2022-08-27T11:41:45.956Z,97962.75
2022-08-27T11:46:02.559Z,97966.16
2022-08-27T11:50:16.095Z,97954.75
2022-08-27T11:54:27.880Z,97949.88
2022-08-27T11:58:53.427Z,97953.13
2022-08-27T12:03:26.200Z,97954.75
2022-08-27T12:07:42.153Z,97953.63
2022-08-27T12:12:16.498Z,97955.78
2022-08-27T12:16:43.147Z,97962.63
2022-08-27T12:21:16.578Z,97968.28
2022-08-27T12:25:23.820Z,97967.00
2022-08-27T12:29:51.196Z,97965.28
2022-08-27T12:34:00.937Z,97962.41
2022-08-27T12:38:50.715Z,97959.31
2022-08-27T12:43:14.333Z,97943.16
2022-08-27T12:47:23.088Z,97944.78
2022-08-27T12:51:33.783Z,97940.00
2022-08-27T12:56:06.670Z,97933.25
2022-08-27T13:00:33.328Z,97922.88
2022-08-27T13:04:44.197Z,97928.00
2022-08-27T13:08:55.658Z,97928.25
2022-08-27T13:13:14.387Z,97920.97
2022-08-27T13:17:22.242Z,97908.31
2022-08-27T13:21:33.127Z,97912.94
2022-08-27T13:25:53.130Z,97918.22
2022-08-27T13:30:02.026Z,97915.31
2022-08-27T13:34:14.027Z,97911.81
2022-08-27T13:38:19.123Z,97906.53
2022-08-27T13:42:22.165Z,97907.84
2022-08-27T13:46:30.059Z,97895.13
2022-08-27T13:50:34.934Z,97905.06
2022-08-27T13:54:37.300Z,97893.56
2022-08-27T13:58:41.586Z,97906.69
2022-08-27T14:02:47.296Z,97906.63
2022-08-27T14:07:10.041Z,97918.72
2022-08-27T14:11:12.476Z,97946.75
2022-08-27T14:15:28.546Z,97957.69
2022-08-27T14:19:36.315Z,97961.72
2022-08-27T14:23:39.053Z,97986.94
2022-08-27T14:27:53.042Z,97986.75
2022-08-27T14:31:56.794Z,97992.69
2022-08-27T14:35:59.435Z,97994.28
2022-08-27T14:40:01.855Z,97991.53
2022-08-27T14:44:05.025Z,97990.72
2022-08-27T14:48:28.632Z,97990.25
2022-08-27T14:52:31.265Z,98021.75
2022-08-27T14:56:33.547Z,98038.03
2022-08-27T15:00:36.672Z,98058.72
2022-08-27T15:04:39.078Z,98079.75
2022-08-27T15:08:45.387Z,98084.66
2022-08-27T15:12:47.458Z,98079.19
2022-08-27T15:16:50.188Z,98086.00
2022-08-27T15:20:52.386Z,98083.09
2022-08-27T15:24:57.020Z,98099.13
2022-08-27T15:29:04.105Z,98100.69
2022-08-27T15:33:08.418Z,98116.50
2022-08-27T15:37:10.490Z,98140.56
2022-08-27T15:41:12.821Z,98186.84
2022-08-27T15:45:15.138Z,98241.13
2022-08-27T15:50:01.103Z,98266.19
2022-08-27T15:54:03.254Z,98270.63
2022-08-27T15:58:05.803Z,98287.88
2022-08-27T16:02:17.587Z,98300.44
2022-08-27T16:06:25.097Z,98286.31
2022-08-27T16:10:29.641Z,98299.03
2022-08-27T16:14:32.169Z,98307.88
2022-08-27T16:18:36.815Z,98317.38
2022-08-27T16:22:41.569Z,98310.06
2022-08-27T16:26:44.369Z,98313.09
2022-08-27T16:30:47.854Z,98315.47
2022-08-27T16:34:55.483Z,98309.13
2022-08-27T16:38:58.218Z,98273.44
2022-08-27T16:43:01.647Z,98251.72
2022-08-27T16:47:04.209Z,98233.78
2022-08-27T16:51:10.726Z,98213.13
2022-08-27T16:55:13.635Z,98194.38
2022-08-27T16:59:15.977Z,98192.28
2022-08-27T17:03:20.169Z,98203.13
2022-08-27T17:07:25.851Z,98226.53
2022-08-27T17:11:30.793Z,98242.72
2022-08-27T17:15:33.037Z,98243.75
2022-08-27T17:19:37.230Z,98212.31
2022-08-27T17:23:42.432Z,98166.66
2022-08-27T17:27:44.668Z,98158.63
2022-08-27T17:31:46.899Z,98209.25
2022-08-27T17:35:49.525Z,98173.59
2022-08-27T17:39:51.647Z,98170.97
2022-08-27T17:43:57.749Z,98157.66
2022-08-27T17:47:59.826Z,98178.41
2022-08-27T17:52:11.638Z,98213.16
2022-08-27T17:56:23.268Z,98244.59
2022-08-27T18:00:30.526Z,98266.84
2022-08-27T18:04:33.254Z,98292.88
2022-08-27T18:08:35.355Z,98294.66
2022-08-27T18:12:37.696Z,98316.28
2022-08-27T18:16:40.825Z,98312.81
2022-08-27T18:20:42.969Z,98299.53
2022-08-27T18:24:44.986Z,98306.88
2022-08-27T18:28:48.207Z,98305.94
2022-08-27T18:32:50.706Z,98312.13
2022-08-27T18:36:52.819Z,98314.16
2022-08-27T18:40:55.278Z,98324.94
2022-08-27T18:44:57.690Z,98360.00
2022-08-27T18:48:59.735Z,98376.66
2022-08-27T18:53:03.275Z,98375.88
2022-08-27T18:57:05.678Z,98411.25
2022-08-27T19:01:19.483Z,98413.91
2022-08-27T19:05:25.394Z,98438.25
2022-08-27T19:09:28.795Z,98433.97
2022-08-27T19:13:31.587Z,98434.63
2022-08-27T19:17:35.605Z,98444.78
2022-08-27T19:21:41.233Z,98444.13
2022-08-27T19:25:47.534Z,98441.75
2022-08-27T19:29:51.047Z,98442.72
2022-08-27T19:33:53.452Z,98456.34
2022-08-27T19:37:56.626Z,98452.84
2022-08-27T19:41:58.768Z,98420.63
2022-08-27T19:46:02.747Z,98413.50
2022-08-27T19:50:07.621Z,98415.25
2022-08-27T19:54:09.818Z,98405.88
2022-08-27T19:58:13.649Z,98391.16
2022-08-27T20:02:15.918Z,98396.53
2022-08-27T20:06:18.186Z,98404.44
2022-08-27T20:10:36.164Z,98402.38
2022-08-27T20:14:39.589Z,98410.63
2022-08-27T20:18:44.419Z,98397.94
2022-08-27T20:22:46.655Z,98382.69
2022-08-27T20:26:49.018Z,98388.28
2022-08-27T20:30:51.852Z,98396.19
2022-08-27T20:34:53.950Z,98382.69
2022-08-27T20:38:55.998Z,98374.28
2022-08-27T20:42:58.404Z,98381.72
2022-08-27T20:47:05.023Z,98383.16
2022-08-27T20:51:07.177Z,98375.53
2022-08-27T20:55:12.157Z,98382.94
2022-08-27T20:59:33.587Z,98382.31
2022-08-27T21:03:36.395Z,98387.50
2022-08-27T21:07:38.821Z,98380.50
2022-08-27T21:11:40.935Z,98375.44
2022-08-27T21:15:43.356Z,98382.34
2022-08-27T21:19:45.651Z,98375.53
2022-08-27T21:23:48.937Z,98375.84
2022-08-27T21:27:52.253Z,98381.38
2022-08-27T21:31:54.855Z,98386.00
2022-08-27T21:35:57.006Z,98378.72
2022-08-27T21:39:59.288Z,98381.44
2022-08-27T21:44:01.775Z,98383.00
2022-08-27T21:48:03.850Z,98369.34
2022-08-27T21:52:07.171Z,98362.56
2022-08-27T21:56:09.895Z,98360.38
2022-08-27T22:00:30.389Z,98365.09
2022-08-27T22:04:33.184Z,98372.53
2022-08-27T22:08:35.259Z,98372.97
2022-08-27T22:12:37.445Z,98383.03
2022-08-27T22:16:39.620Z,98383.19
2022-08-27T22:20:42.558Z,98385.78
2022-08-27T22:24:44.845Z,98385.00
2022-08-27T22:28:47.522Z,98381.34
2022-08-27T22:32:49.589Z,98373.16
2022-08-27T22:36:51.788Z,98379.94
2022-08-27T22:40:53.928Z,98365.53
2022-08-27T22:44:56.010Z,98372.00
2022-08-27T22:48:58.110Z,98375.03
2022-08-27T22:53:00.102Z,98382.63
2022-08-27T22:57:02.154Z,98384.63
2022-08-27T23:01:04.647Z,98384.28
2022-08-27T23:05:07.565Z,98396.25
2022-08-27T23:09:10.025Z,98395.63
2022-08-27T23:13:13.000Z,98401.69
2022-08-27T23:17:16.185Z,98403.44
2022-08-27T23:21:19.194Z,98390.63
2022-08-27T23:25:41.374Z,98396.03
2022-08-27T23:29:46.207Z,98394.88
2022-08-27T23:33:52.660Z,98395.50
2022-08-27T23:37:55.280Z,98392.66
2022-08-27T23:41:57.284Z,98391.75
2022-08-27T23:45:59.613Z,98397.41
2022-08-27T23:50:01.908Z,98398.09
2022-08-27T23:54:04.326Z,98401.78
2022-08-27T23:58:07.749Z,98388.81
